createdAt,value
2018-06-19T00:01:26.986Z,19.10
2018-06-19T00:03:57.417Z,19.10
2018-06-19T00:06:27.864Z,19.10
2018-06-19T00:08:58.357Z,19.00
2018-06-19T00:11:28.884Z,19.00
2018-06-19T00:13:59.378Z,19.00
2018-06-19T00:16:29.891Z,18.90
2018-06-19T00:19:01.485Z,18.80
2018-06-19T00:21:36.927Z,18.80
2018-06-19T00:24:07.518Z,18.80
2018-06-19T00:26:37.964Z,18.70
2018-06-19T00:29:08.378Z,18.70
2018-06-19T00:31:38.871Z,18.60
2018-06-19T00:34:09.349Z,18.60
2018-06-19T00:36:39.786Z,18.50
2018-06-19T00:39:11.756Z,18.50
2018-06-19T00:41:42.698Z,18.40
2018-06-19T00:44:14.018Z,18.40
2018-06-19T00:46:49.227Z,18.40
2018-06-19T00:49:20.658Z,18.40
2018-06-19T00:51:51.071Z,18.40
2018-06-19T00:54:21.778Z,18.50
2018-06-19T00:56:57.865Z,18.40
2018-06-19T00:59:28.374Z,18.40
2018-06-19T01:02:01.009Z,18.40
2018-06-19T01:04:31.549Z,18.50
2018-06-19T01:07:02.614Z,18.50
2018-06-19T01:09:33.037Z,18.50
2018-06-19T01:12:03.633Z,18.50
2018-06-19T01:14:34.695Z,18.50
2018-06-19T01:17:05.201Z,18.50
2018-06-19T01:19:35.612Z,18.50
2018-06-19T01:22:06.121Z,18.40
2018-06-19T01:24:36.623Z,18.40
2018-06-19T01:27:07.119Z,18.40
2018-06-19T01:29:37.583Z,18.50
2018-06-19T01:32:08.180Z,18.50
2018-06-19T01:34:38.644Z,18.50
2018-06-19T01:37:09.058Z,18.40
2018-06-19T01:39:39.534Z,18.40
2018-06-19T01:42:10.045Z,18.30
2018-06-19T01:44:40.524Z,18.30
2018-06-19T01:47:11.294Z,18.30
2018-06-19T01:49:41.708Z,18.40
2018-06-19T01:52:12.236Z,18.40
2018-06-19T01:54:42.682Z,18.40
2018-06-19T01:57:13.115Z,18.40
2018-06-19T01:59:43.555Z,18.40
2018-06-19T02:02:13.933Z,18.40
2018-06-19T02:04:44.352Z,18.30
2018-06-19T02:07:14.753Z,18.40
2018-06-19T02:09:45.256Z,18.50
2018-06-19T02:12:15.645Z,18.50
2018-06-19T02:14:46.724Z,18.50
2018-06-19T02:17:17.123Z,18.50
2018-06-19T02:19:47.574Z,18.50
2018-06-19T02:22:17.910Z,18.60
2018-06-19T02:24:48.323Z,18.60
2018-06-19T02:27:18.738Z,18.50
2018-06-19T02:29:49.245Z,18.60
2018-06-19T02:32:19.641Z,18.60
2018-06-19T02:34:50.067Z,18.60
2018-06-19T02:37:20.504Z,18.60
2018-06-19T02:39:50.936Z,18.60
2018-06-19T02:42:21.439Z,18.40
2018-06-19T02:44:51.964Z,18.40
2018-06-19T02:47:22.381Z,18.40
2018-06-19T02:49:52.784Z,18.30
2018-06-19T02:52:23.321Z,18.20
2018-06-19T02:54:53.770Z,18.20
2018-06-19T02:57:24.165Z,18.10
2018-06-19T02:59:54.620Z,18.10
2018-06-19T03:02:25.167Z,18.00
2018-06-19T03:04:55.602Z,18.00
2018-06-19T03:07:26.526Z,18.00
2018-06-19T03:09:57.573Z,18.00
2018-06-19T03:12:28.056Z,18.00
2018-06-19T03:14:58.526Z,17.90
2018-06-19T03:17:28.992Z,17.90
2018-06-19T03:19:59.379Z,17.90
2018-06-19T03:22:29.865Z,17.80
2018-06-19T03:25:00.273Z,17.80
2018-06-19T03:27:30.723Z,17.70
2018-06-19T03:30:01.153Z,17.70
2018-06-19T03:32:31.540Z,17.80
2018-06-19T03:35:01.951Z,17.80
2018-06-19T03:37:33.796Z,17.80
2018-06-19T03:40:04.303Z,17.80
2018-06-19T03:42:34.799Z,17.90
2018-06-19T03:45:05.623Z,17.90
2018-06-19T03:47:36.052Z,18.00
2018-06-19T03:50:07.813Z,18.00
2018-06-19T03:52:38.470Z,18.00
2018-06-19T03:55:08.979Z,18.10
2018-06-19T03:57:39.571Z,18.10
2018-06-19T04:00:10.091Z,18.10
2018-06-19T04:02:40.558Z,18.00
2018-06-19T04:05:11.026Z,18.10
2018-06-19T04:07:41.486Z,18.10
2018-06-19T04:10:11.932Z,18.20
2018-06-19T04:12:42.401Z,18.30
2018-06-19T04:15:12.806Z,18.30
2018-06-19T04:17:43.244Z,18.40
2018-06-19T04:20:13.771Z,18.30
2018-06-19T04:22:44.492Z,18.40
2018-06-19T04:25:15.010Z,18.40
2018-06-19T04:27:45.439Z,18.40
2018-06-19T04:30:15.957Z,18.40
2018-06-19T04:32:46.361Z,18.40
2018-06-19T04:35:16.862Z,18.50
2018-06-19T04:37:47.300Z,18.50
2018-06-19T04:40:17.669Z,18.50
2018-06-19T04:42:48.267Z,18.60
2018-06-19T04:45:18.700Z,18.60
2018-06-19T04:47:49.285Z,18.70
2018-06-19T04:50:19.685Z,18.80
2018-06-19T04:52:50.139Z,19.00
2018-06-19T04:55:21.292Z,19.40
2018-06-19T04:57:51.882Z,20.10
2018-06-19T05:00:22.343Z,20.90
2018-06-19T05:02:52.757Z,21.60
2018-06-19T05:05:23.159Z,22.30
2018-06-19T05:07:53.963Z,22.90
2018-06-19T05:10:24.397Z,23.40
2018-06-19T05:12:54.836Z,23.90
2018-06-19T05:15:25.391Z,24.30
2018-06-19T05:17:55.810Z,24.60
2018-06-19T05:20:26.326Z,24.90
2018-06-19T05:22:56.757Z,25.20
2018-06-19T05:25:27.340Z,25.50
2018-06-19T05:27:57.723Z,25.80
2018-06-19T05:30:28.254Z,26.10
2018-06-19T05:32:58.666Z,26.30
2018-06-19T05:35:29.095Z,26.40
2018-06-19T05:37:59.554Z,26.60
2018-06-19T05:40:30.285Z,26.60
2018-06-19T05:43:00.983Z,26.30
2018-06-19T05:45:31.431Z,25.90
2018-06-19T05:48:01.858Z,25.60
2018-06-19T05:50:32.395Z,25.20
2018-06-19T05:53:02.921Z,24.80
2018-06-19T05:55:33.329Z,24.60
2018-06-19T05:58:03.788Z,24.40
2018-06-19T06:00:34.199Z,24.20
2018-06-19T06:03:04.607Z,23.90
2018-06-19T06:05:35.121Z,23.80
2018-06-19T06:08:05.662Z,23.70
2018-06-19T06:10:36.920Z,23.60
2018-06-19T06:13:12.932Z,23.50
2018-06-19T06:15:43.354Z,23.40
2018-06-19T06:18:13.917Z,23.40
2018-06-19T06:20:55.240Z,23.40
2018-06-19T06:23:57.919Z,23.50
2018-06-19T06:26:31.332Z,23.50
2018-06-19T06:29:11.874Z,23.40
2018-06-19T06:31:59.754Z,23.40
2018-06-19T06:34:47.583Z,23.30
2018-06-19T06:37:46.380Z,23.30
2018-06-19T06:40:43.585Z,23.30
2018-06-19T06:43:19.978Z,23.20
2018-06-19T06:45:50.529Z,23.20
2018-06-19T06:48:21.105Z,23.10
2018-06-19T06:50:51.617Z,23.10
2018-06-19T06:53:22.399Z,23.10
2018-06-19T06:55:52.848Z,23.10
2018-06-19T06:58:23.312Z,23.10
2018-06-19T07:03:24.266Z,23.50
2018-06-19T07:05:54.700Z,23.80
2018-06-19T07:08:25.141Z,24.20
2018-06-19T07:10:55.608Z,24.40
2018-06-19T07:13:26.087Z,24.40
2018-06-19T07:15:56.502Z,24.30
2018-06-19T07:18:27.112Z,24.30
2018-06-19T07:20:57.535Z,24.10
2018-06-19T07:23:27.976Z,24.10
2018-06-19T07:25:58.498Z,24.30
2018-06-19T07:28:28.990Z,24.30
2018-06-19T07:30:59.589Z,24.40
2018-06-19T07:33:30.095Z,24.50
2018-06-19T07:36:00.592Z,24.80
2018-06-19T07:38:31.206Z,25.20
2018-06-19T07:41:03.064Z,25.60
2018-06-19T07:43:33.534Z,25.90
2018-06-19T07:46:03.997Z,25.80
2018-06-19T07:48:34.520Z,25.60
2018-06-19T07:51:04.960Z,25.70
2018-06-19T07:53:35.419Z,25.80
2018-06-19T07:56:06.224Z,25.70
2018-06-19T07:58:37.190Z,25.70
2018-06-19T08:01:07.548Z,25.60
2018-06-19T08:03:37.941Z,25.70
2018-06-19T08:06:08.422Z,25.80
2018-06-19T08:08:38.883Z,25.80
2018-06-19T08:11:09.286Z,25.70
2018-06-19T08:13:39.691Z,25.50
2018-06-19T08:16:10.111Z,25.40
2018-06-19T08:21:10.975Z,25.10
2018-06-19T08:23:41.643Z,25.00
2018-06-19T08:26:12.111Z,24.90
2018-06-19T08:28:42.560Z,24.90
2018-06-19T08:31:13.085Z,24.60
2018-06-19T08:33:43.515Z,24.50
2018-06-19T08:36:14.202Z,24.50
2018-06-19T08:38:44.649Z,24.50
2018-06-19T08:41:15.132Z,24.60
2018-06-19T08:43:45.542Z,24.60
2018-06-19T08:46:16.137Z,24.70
2018-06-19T08:48:47.443Z,24.70
2018-06-19T08:51:17.851Z,24.80
2018-06-19T08:53:49.225Z,24.70
2018-06-19T08:56:19.703Z,24.70
2018-06-19T08:58:50.234Z,24.80
2018-06-19T09:01:20.754Z,25.00
2018-06-19T09:03:51.209Z,25.10
2018-06-19T09:06:21.742Z,25.20
2018-06-19T09:08:52.248Z,25.00
2018-06-19T09:11:22.632Z,25.00
2018-06-19T09:13:53.118Z,25.10
2018-06-19T09:16:23.553Z,25.00
2018-06-19T09:18:54.081Z,24.60
2018-06-19T09:21:25.159Z,24.60
2018-06-19T09:23:55.941Z,24.60
2018-06-19T09:26:26.456Z,24.80
2018-06-19T09:28:56.954Z,25.00
2018-06-19T09:31:27.570Z,25.00
2018-06-19T09:33:57.909Z,25.00
2018-06-19T09:36:28.449Z,25.00
2018-06-19T09:38:59.720Z,25.10
2018-06-19T09:41:30.208Z,25.30
2018-06-19T09:44:00.639Z,25.30
2018-06-19T09:46:31.139Z,25.20
2018-06-19T09:49:02.142Z,25.10
2018-06-19T09:51:32.806Z,25.00
2018-06-19T09:54:03.378Z,25.00
2018-06-19T09:56:34.263Z,25.00
2018-06-19T09:59:05.108Z,25.00
2018-06-19T10:01:35.607Z,25.10
2018-06-19T10:04:06.194Z,25.10
2018-06-19T10:06:36.610Z,25.10
2018-06-19T10:09:09.972Z,25.10
2018-06-19T10:11:40.506Z,25.10
2018-06-19T10:14:10.923Z,25.10
2018-06-19T10:19:11.538Z,25.10
2018-06-19T10:21:42.150Z,25.20
2018-06-19T10:24:12.988Z,25.10
2018-06-19T10:26:43.553Z,25.00
2018-06-19T10:29:14.012Z,24.90
2018-06-19T10:31:44.439Z,24.90
2018-06-19T10:34:14.912Z,25.00
2018-06-19T10:36:45.435Z,25.20
2018-06-19T10:39:15.949Z,25.40
2018-06-19T10:41:46.326Z,25.50
2018-06-19T10:44:16.760Z,25.80
2018-06-19T10:46:47.270Z,26.10
2018-06-19T10:49:17.734Z,26.30
2018-06-19T10:51:48.130Z,26.60
2018-06-19T10:54:18.643Z,26.60
2018-06-19T10:56:49.111Z,26.70
2018-06-19T10:59:20.232Z,26.90
2018-06-19T11:01:50.757Z,26.80
2018-06-19T11:04:21.302Z,26.90
2018-06-19T11:06:51.776Z,26.90
2018-06-19T11:09:22.269Z,26.90
2018-06-19T11:11:52.748Z,26.80
2018-06-19T11:14:23.180Z,26.80
2018-06-19T11:16:53.652Z,26.90
2018-06-19T11:21:54.033Z,26.60
2018-06-19T11:24:24.437Z,26.60
2018-06-19T11:26:54.944Z,26.30
2018-06-19T11:29:25.385Z,26.20
2018-06-19T11:31:56.412Z,26.00
2018-06-19T11:34:26.847Z,25.90
2018-06-19T11:36:57.363Z,25.90
2018-06-19T11:39:27.710Z,25.90
2018-06-19T11:53:13.276Z,25.80
2018-06-19T11:55:43.805Z,25.80
2018-06-19T11:58:14.359Z,25.90
2018-06-19T12:00:44.813Z,26.00
2018-06-19T12:03:15.291Z,26.20
2018-06-19T12:05:46.213Z,26.30
2018-06-19T12:08:16.727Z,26.50
2018-06-19T12:10:47.192Z,26.50
2018-06-19T12:13:17.637Z,26.70
2018-06-19T12:15:48.013Z,26.60
2018-06-19T12:18:19.082Z,26.60
2018-06-19T12:20:49.806Z,26.50
2018-06-19T12:23:20.249Z,26.60
2018-06-19T12:25:50.693Z,26.50
2018-06-19T12:28:21.127Z,26.60
2018-06-19T12:30:51.611Z,26.70
2018-06-19T12:33:22.166Z,26.70
2018-06-19T12:35:52.679Z,26.80
2018-06-19T12:38:23.260Z,26.80
2018-06-19T12:40:53.714Z,26.90
2018-06-19T12:45:54.187Z,26.90
2018-06-19T12:48:24.664Z,26.80
2018-06-19T12:52:12.605Z,26.80
2018-06-19T12:55:26.354Z,26.80
2018-06-19T12:57:56.790Z,26.80
2018-06-19T13:00:27.211Z,27.00
2018-06-19T13:03:14.479Z,27.20
2018-06-19T13:06:01.995Z,27.30
2018-06-19T13:08:32.447Z,27.30
2018-06-19T13:11:03.772Z,27.10
2018-06-19T13:13:51.901Z,26.90
2018-06-19T13:16:39.194Z,26.90
2018-06-19T13:19:27.472Z,26.90
2018-06-19T13:21:57.988Z,26.90
2018-06-19T13:26:58.497Z,26.70
2018-06-19T13:29:49.596Z,26.80
2018-06-19T13:32:21.007Z,26.70
2018-06-19T13:34:52.151Z,26.60
2018-06-19T13:37:22.617Z,26.60
2018-06-19T13:41:15.994Z,26.60
2018-06-19T13:44:05.542Z,26.60
2018-06-19T13:46:36.737Z,26.60
2018-06-19T13:49:07.337Z,26.60
2018-06-19T13:51:38.006Z,26.60
2018-06-19T13:54:08.599Z,26.80
2018-06-19T13:57:34.404Z,26.70
2018-06-19T14:00:08.531Z,26.80
2018-06-19T14:02:38.994Z,26.70
2018-06-19T14:05:10.370Z,26.70
2018-06-19T14:07:57.864Z,26.60
2018-06-19T14:10:45.517Z,26.60
2018-06-19T14:13:16.918Z,26.40
2018-06-19T14:15:51.334Z,26.40
2018-06-19T14:18:22.195Z,26.30
2018-06-19T14:20:53.342Z,26.30
2018-06-19T14:23:23.851Z,26.20
2018-06-19T14:25:54.380Z,26.00
2018-06-19T14:28:24.868Z,25.90
2018-06-19T14:30:55.338Z,25.90
2018-06-19T14:33:25.991Z,26.00
2018-06-19T14:35:56.453Z,26.10
2018-06-19T14:38:26.908Z,26.10
2018-06-19T14:40:57.338Z,26.10
2018-06-19T14:43:27.813Z,26.20
2018-06-19T14:45:58.396Z,26.00
2018-06-19T14:48:29.502Z,26.00
2018-06-19T14:51:00.099Z,25.90
2018-06-19T14:53:30.674Z,25.90
2018-06-19T14:56:01.178Z,26.00
2018-06-19T14:58:31.645Z,26.00
2018-06-19T15:01:02.098Z,26.00
2018-06-19T15:03:32.516Z,26.00
2018-06-19T15:06:02.994Z,26.10
2018-06-19T15:08:33.410Z,26.10
2018-06-19T15:11:03.823Z,26.00
2018-06-19T15:13:34.282Z,26.20
2018-06-19T15:16:04.924Z,26.30
2018-06-19T15:18:35.436Z,26.30
2018-06-19T15:21:05.890Z,26.40
2018-06-19T15:23:36.329Z,26.30
2018-06-19T15:26:06.724Z,26.30
2018-06-19T15:28:37.116Z,26.30
2018-06-19T15:31:07.640Z,26.30
2018-06-19T15:33:38.053Z,26.30
2018-06-19T15:36:08.416Z,26.30
2018-06-19T15:38:38.827Z,26.30
2018-06-19T15:41:09.280Z,26.30
2018-06-19T15:43:39.806Z,26.40
2018-06-19T15:46:10.284Z,26.40
2018-06-19T15:48:40.841Z,26.50
2018-06-19T15:51:11.288Z,26.50
2018-06-19T15:53:41.873Z,26.50
2018-06-19T15:56:12.407Z,26.50
2018-06-19T15:58:43.028Z,26.50
2018-06-19T16:01:13.528Z,26.40
2018-06-19T16:03:44.339Z,26.40
2018-06-19T16:06:14.779Z,26.40
2018-06-19T16:08:45.186Z,26.40
2018-06-19T16:11:15.821Z,26.40
2018-06-19T16:13:46.432Z,26.40
2018-06-19T16:16:16.864Z,26.40
2018-06-19T16:18:47.305Z,26.50
2018-06-19T16:21:17.781Z,26.50
2018-06-19T16:23:48.409Z,26.50
2018-06-19T16:26:18.845Z,26.50
2018-06-19T16:28:49.313Z,26.50
2018-06-19T16:31:19.867Z,26.50
2018-06-19T16:33:50.340Z,26.60
2018-06-19T16:36:20.849Z,26.60
2018-06-19T16:38:52.280Z,26.50
2018-06-19T16:41:22.732Z,26.60
2018-06-19T16:43:53.193Z,26.50
2018-06-19T16:46:23.659Z,26.60
2018-06-19T16:48:54.116Z,26.60
2018-06-19T16:51:25.196Z,26.50
2018-06-19T16:53:56.408Z,26.50
2018-06-19T16:56:26.907Z,26.40
2018-06-19T16:58:57.352Z,26.40
2018-06-19T17:01:27.807Z,26.50
2018-06-19T17:03:58.984Z,26.50
2018-06-19T17:06:29.408Z,26.50
2018-06-19T17:08:59.823Z,26.50
2018-06-19T17:11:30.368Z,26.40
2018-06-19T17:14:00.849Z,26.40
2018-06-19T17:16:31.289Z,26.30
2018-06-19T17:19:01.869Z,26.30
2018-06-19T17:21:32.371Z,26.30
2018-06-19T17:24:02.900Z,26.30
2018-06-19T17:26:33.429Z,26.30
2018-06-19T17:29:03.935Z,26.30
2018-06-19T17:31:34.465Z,26.20
2018-06-19T17:34:04.926Z,26.30
2018-06-19T17:36:35.387Z,26.10
2018-06-19T17:39:09.790Z,26.10
2018-06-19T17:41:40.289Z,26.00
2018-06-19T17:44:10.753Z,26.00
2018-06-19T17:46:41.235Z,25.90
2018-06-19T17:49:11.698Z,25.90
2018-06-19T17:51:42.109Z,26.00
2018-06-19T17:54:12.697Z,26.10
2018-06-19T17:59:13.150Z,26.00
2018-06-19T18:01:43.539Z,26.00
2018-06-19T18:04:13.964Z,26.00
2018-06-19T18:06:44.421Z,25.90
2018-06-19T18:09:14.846Z,25.80
2018-06-19T18:11:45.289Z,25.80
2018-06-19T18:14:15.753Z,25.70
2018-06-19T18:16:46.233Z,25.70
2018-06-19T18:19:16.838Z,25.60
2018-06-19T18:21:47.307Z,25.60
2018-06-19T18:24:17.736Z,25.50
2018-06-19T18:26:48.268Z,25.50
2018-06-19T18:29:18.839Z,25.50
2018-06-19T18:31:49.346Z,25.40
2018-06-19T18:34:19.787Z,25.40
2018-06-19T18:36:51.201Z,25.40
2018-06-19T18:39:21.765Z,25.30
2018-06-19T18:41:52.208Z,25.20
2018-06-19T18:44:22.736Z,25.10
2018-06-19T18:46:53.337Z,25.10
2018-06-19T18:49:23.768Z,25.10
2018-06-19T18:51:54.325Z,25.00
2018-06-19T18:54:24.843Z,24.90
2018-06-19T18:56:55.277Z,24.80
2018-06-19T18:59:27.731Z,24.70
2018-06-19T19:01:58.184Z,24.70
2018-06-19T19:04:28.663Z,24.60
2018-06-19T19:06:59.060Z,24.40
2018-06-19T19:09:29.637Z,24.40
2018-06-19T19:12:00.126Z,24.40
2018-06-19T19:14:34.624Z,24.30
2018-06-19T19:19:12.304Z,24.30
2018-06-19T19:21:42.769Z,24.20
2018-06-19T19:24:13.297Z,24.10
2018-06-19T19:26:49.034Z,24.00
2018-06-19T19:29:24.793Z,23.90
2018-06-19T19:31:55.490Z,23.90
2018-06-19T19:34:25.986Z,23.90
2018-06-19T19:37:01.590Z,23.80
2018-06-19T19:39:32.063Z,23.90
2018-06-19T19:44:32.467Z,23.90
2018-06-19T19:47:08.017Z,23.90
2018-06-19T19:49:39.215Z,23.90
2018-06-19T19:52:09.849Z,23.90
2018-06-19T19:54:40.259Z,23.90
2018-06-19T19:57:15.791Z,23.90
2018-06-19T19:59:46.255Z,23.90
2018-06-19T20:02:17.240Z,23.90
2018-06-19T20:04:47.649Z,23.90
2018-06-19T20:07:18.305Z,23.80
2018-06-19T20:09:48.861Z,23.80
2018-06-19T20:12:20.357Z,23.80
2018-06-19T20:14:51.324Z,23.70
2018-06-19T20:17:22.738Z,23.60
2018-06-19T20:19:53.466Z,23.60
2018-06-19T20:22:23.870Z,23.50
2018-06-19T20:24:54.498Z,23.50
2018-06-19T20:27:24.980Z,23.50
2018-06-19T20:29:55.471Z,23.40
2018-06-19T20:32:25.920Z,23.40
2018-06-19T20:34:56.409Z,23.30
2018-06-19T20:37:27.657Z,23.30
2018-06-19T20:39:58.085Z,23.20
2018-06-19T20:42:28.497Z,23.20
2018-06-19T20:44:59.937Z,23.20
2018-06-19T20:47:30.831Z,23.00
2018-06-19T20:50:01.244Z,23.00
2018-06-19T20:52:32.765Z,23.00
2018-06-19T20:55:03.676Z,22.90
2018-06-19T20:57:34.206Z,22.80
2018-06-19T21:00:04.698Z,22.80
2018-06-19T21:02:35.141Z,22.70
2018-06-19T21:05:05.781Z,22.70
2018-06-19T21:07:36.185Z,22.60
2018-06-19T21:10:06.726Z,22.60
2018-06-19T21:12:37.151Z,22.50
2018-06-19T21:15:07.637Z,22.40
2018-06-19T21:17:38.793Z,22.40
2018-06-19T21:20:09.227Z,22.40
2018-06-19T21:22:39.666Z,22.40
2018-06-19T21:25:10.057Z,22.40
2018-06-19T21:27:40.478Z,22.30
2018-06-19T21:30:10.932Z,22.20
2018-06-19T21:32:41.408Z,22.20
2018-06-19T21:35:11.866Z,22.20
2018-06-19T21:37:42.333Z,22.20
2018-06-19T21:40:12.799Z,22.20
2018-06-19T21:42:43.284Z,22.20
2018-06-19T21:45:13.729Z,22.20
2018-06-19T21:47:44.211Z,22.20
2018-06-19T21:50:14.631Z,22.20
2018-06-19T21:52:45.024Z,22.20
2018-06-19T21:55:15.450Z,22.10
2018-06-19T21:57:45.997Z,22.10
2018-06-19T22:00:16.472Z,22.10
2018-06-19T22:02:46.932Z,22.10
2018-06-19T22:05:17.420Z,22.10
2018-06-19T22:07:47.880Z,22.10
2018-06-19T22:10:18.307Z,22.10
2018-06-19T22:12:48.701Z,22.00
2018-06-19T22:15:19.194Z,22.00
2018-06-19T22:17:49.641Z,21.90
2018-06-19T22:20:20.612Z,21.90
2018-06-19T22:22:51.019Z,21.80
2018-06-19T22:25:21.448Z,21.70
2018-06-19T22:27:51.859Z,21.70
2018-06-19T22:30:22.353Z,21.70
2018-06-19T22:32:53.410Z,21.70
2018-06-19T22:35:23.925Z,21.70
2018-06-19T22:37:54.339Z,21.70
2018-06-19T22:40:24.843Z,21.60
2018-06-19T22:42:55.254Z,21.50
2018-06-19T22:45:25.717Z,21.50
2018-06-19T22:47:56.173Z,21.40
2018-06-19T22:50:26.718Z,21.40
2018-06-19T22:52:57.222Z,21.30
2018-06-19T22:55:27.553Z,21.30
2018-06-19T22:57:58.001Z,21.20
2018-06-19T23:00:28.463Z,21.10
2018-06-19T23:03:03.238Z,21.10
2018-06-19T23:05:34.845Z,21.00
2018-06-19T23:08:05.390Z,20.90
2018-06-19T23:10:35.862Z,20.80
2018-06-19T23:13:06.318Z,20.80
2018-06-19T23:15:36.679Z,20.80
2018-06-19T23:18:07.140Z,20.80
2018-06-19T23:20:37.737Z,20.80
2018-06-19T23:23:08.232Z,20.80
2018-06-19T23:25:38.605Z,20.70
2018-06-19T23:28:08.997Z,20.60
2018-06-19T23:30:39.390Z,20.60
2018-06-19T23:33:09.888Z,20.50
2018-06-19T23:35:40.270Z,20.50
2018-06-19T23:38:10.788Z,20.50
2018-06-19T23:40:41.174Z,20.50
2018-06-19T23:43:11.588Z,20.50
2018-06-19T23:45:42.028Z,20.50
2018-06-19T23:48:13.308Z,20.40
2018-06-19T23:50:43.796Z,20.40
2018-06-19T23:53:14.251Z,20.40
2018-06-19T23:55:44.721Z,20.40
2018-06-19T23:58:15.964Z,20.40
